Livonia, Louisiana
Current Conditions -  °F | °C
As of 3:55 PM on Friday 28 Nov 2014 (Local Time) from KHZR Reporting Station
Clear Clear  
Wind Chill: 61°   Ceiling: Unl
Heat Index: 61°   Visibility: 10mi
Dew Point: 34°   Wind: 5mph
Humidity: 36%   Direction: 110°ESE
Pressure: 30.27"   Gusts: NA
Location:  30.56°N, 91.56°W
Report Text: KHZR 282155Z AUTO 11004KT 10SM CLR 16/01 A3027 RMK AO2 T01630010
Loading
Personal Weather Stations






























Interactive Weather Map New forecast layout! Learn more

10-Day Weather Forecast

Advertisements
Track Severe Weather on mobile